sensor_id;sensor_type;location;lat;lon;timestamp;temperature;humidity
60473;DHT22;46318;52.716;6.444;2022-12-29T00:02:07;9.90;99.90
60473;DHT22;46318;52.716;6.444;2022-12-29T00:04:33;9.90;99.90
60473;DHT22;46318;52.716;6.444;2022-12-29T00:06:59;9.90;99.90
60473;DHT22;46318;52.716;6.444;2022-12-29T00:09:25;9.90;99.90
60473;DHT22;46318;52.716;6.444;2022-12-29T00:11:51;9.90;99.90
60473;DHT22;46318;52.716;6.444;2022-12-29T00:14:17;9.90;99.90
60473;DHT22;46318;52.716;6.444;2022-12-29T00:17:07;9.90;99.90
60473;DHT22;46318;52.716;6.444;2022-12-29T00:19:33;9.90;99.90
60473;DHT22;46318;52.716;6.444;2022-12-29T00:22:18;9.90;99.90
60473;DHT22;46318;52.716;6.444;2022-12-29T00:25:03;10.00;99.90
60473;DHT22;46318;52.716;6.444;2022-12-29T00:27:48;9.90;99.90
60473;DHT22;46318;52.716;6.444;2022-12-29T00:30:32;9.90;99.90
60473;DHT22;46318;52.716;6.444;2022-12-29T00:33:18;10.00;99.90
60473;DHT22;46318;52.716;6.444;2022-12-29T00:38:43;10.00;99.90
60473;DHT22;46318;52.716;6.444;2022-12-29T00:41:30;10.00;99.90
60473;DHT22;46318;52.716;6.444;2022-12-29T00:44:14;10.00;99.90
60473;DHT22;46318;52.716;6.444;2022-12-29T00:46:41;10.00;99.90
60473;DHT22;46318;52.716;6.444;2022-12-29T00:49:11;10.00;99.90
60473;DHT22;46318;52.716;6.444;2022-12-29T00:52:03;10.10;99.90
60473;DHT22;46318;52.716;6.444;2022-12-29T00:54:31;10.10;99.90
60473;DHT22;46318;52.716;6.444;2022-12-29T00:56:58;10.10;99.90
60473;DHT22;46318;52.716;6.444;2022-12-29T00:59:24;10.10;99.90
60473;DHT22;46318;52.716;6.444;2022-12-29T01:01:50;10.10;99.90
60473;DHT22;46318;52.716;6.444;2022-12-29T01:04:17;10.10;99.90
60473;DHT22;46318;52.716;6.444;2022-12-29T01:06:44;10.10;99.90
60473;DHT22;46318;52.716;6.444;2022-12-29T01:09:10;10.20;99.90
60473;DHT22;46318;52.716;6.444;2022-12-29T01:11:54;10.20;99.90
60473;DHT22;46318;52.716;6.444;2022-12-29T01:14:20;10.20;99.90
60473;DHT22;46318;52.716;6.444;2022-12-29T01:16:47;10.20;99.90
60473;DHT22;46318;52.716;6.444;2022-12-29T01:19:13;10.20;99.90
60473;DHT22;46318;52.716;6.444;2022-12-29T01:21:40;10.30;99.90
60473;DHT22;46318;52.716;6.444;2022-12-29T01:24:05;10.30;99.90
60473;DHT22;46318;52.716;6.444;2022-12-29T01:26:34;10.30;99.90
60473;DHT22;46318;52.716;6.444;2022-12-29T01:29:00;10.30;99.90
60473;DHT22;46318;52.716;6.444;2022-12-29T01:31:26;10.30;99.90
60473;DHT22;46318;52.716;6.444;2022-12-29T01:33:52;10.30;99.90
60473;DHT22;46318;52.716;6.444;2022-12-29T01:36:18;10.30;99.90
60473;DHT22;46318;52.716;6.444;2022-12-29T01:38:44;10.30;99.90
60473;DHT22;46318;52.716;6.444;2022-12-29T01:41:11;10.40;99.90
60473;DHT22;46318;52.716;6.444;2022-12-29T01:48:49;10.40;99.90
60473;DHT22;46318;52.716;6.444;2022-12-29T01:51:17;10.40;99.90
60473;DHT22;46318;52.716;6.444;2022-12-29T01:53:43;10.40;99.90
60473;DHT22;46318;52.716;6.444;2022-12-29T01:56:09;10.40;99.90
60473;DHT22;46318;52.716;6.444;2022-12-29T01:58:38;10.40;99.90
60473;DHT22;46318;52.716;6.444;2022-12-29T02:01:05;10.40;99.90
60473;DHT22;46318;52.716;6.444;2022-12-29T02:03:31;10.50;99.90
60473;DHT22;46318;52.716;6.444;2022-12-29T02:08:33;10.50;99.90
60473;DHT22;46318;52.716;6.444;2022-12-29T02:10:59;10.40;99.90
60473;DHT22;46318;52.716;6.444;2022-12-29T02:13:26;10.50;99.90
60473;DHT22;46318;52.716;6.444;2022-12-29T02:30:03;10.40;99.90
60473;DHT22;46318;52.716;6.444;2022-12-29T02:37:57;10.40;99.90
60473;DHT22;46318;52.716;6.444;2022-12-29T02:40:53;10.40;99.90
60473;DHT22;46318;52.716;6.444;2022-12-29T02:46:17;10.30;99.90
60473;DHT22;46318;52.716;6.444;2022-12-29T02:51:35;10.30;99.90
60473;DHT22;46318;52.716;6.444;2022-12-29T02:54:02;10.30;99.90
60473;DHT22;46318;52.716;6.444;2022-12-29T02:56:51;10.30;99.90
60473;DHT22;46318;52.716;6.444;2022-12-29T02:59:18;10.30;99.90
60473;DHT22;46318;52.716;6.444;2022-12-29T03:07:48;10.30;99.90
60473;DHT22;46318;52.716;6.444;2022-12-29T03:13:35;10.30;99.90
60473;DHT22;46318;52.716;6.444;2022-12-29T03:16:24;10.20;99.90
60473;DHT22;46318;52.716;6.444;2022-12-29T03:21:56;10.30;99.90
60473;DHT22;46318;52.716;6.444;2022-12-29T03:24:44;10.20;99.90
60473;DHT22;46318;52.716;6.444;2022-12-29T03:27:14;10.20;99.90
60473;DHT22;46318;52.716;6.444;2022-12-29T03:29:44;10.20;99.90
60473;DHT22;46318;52.716;6.444;2022-12-29T03:32:12;10.20;99.90
60473;DHT22;46318;52.716;6.444;2022-12-29T03:34:38;10.20;99.90
60473;DHT22;46318;52.716;6.444;2022-12-29T03:37:06;10.20;99.90
60473;DHT22;46318;52.716;6.444;2022-12-29T03:39:35;10.30;99.90
60473;DHT22;46318;52.716;6.444;2022-12-29T03:42:03;10.20;99.90
60473;DHT22;46318;52.716;6.444;2022-12-29T03:44:31;10.30;99.90
60473;DHT22;46318;52.716;6.444;2022-12-29T03:47:01;10.30;99.90
60473;DHT22;46318;52.716;6.444;2022-12-29T03:49:27;10.30;99.90
60473;DHT22;46318;52.716;6.444;2022-12-29T03:51:53;10.30;99.90
60473;DHT22;46318;52.716;6.444;2022-12-29T03:54:19;10.30;99.90
60473;DHT22;46318;52.716;6.444;2022-12-29T03:56:45;10.30;99.90
60473;DHT22;46318;52.716;6.444;2022-12-29T03:59:11;10.30;99.90
60473;DHT22;46318;52.716;6.444;2022-12-29T04:01:36;10.30;99.90
60473;DHT22;46318;52.716;6.444;2022-12-29T04:04:02;10.30;99.90
60473;DHT22;46318;52.716;6.444;2022-12-29T04:06:28;10.30;99.90
60473;DHT22;46318;52.716;6.444;2022-12-29T04:08:53;10.30;99.90
60473;DHT22;46318;52.716;6.444;2022-12-29T04:11:19;10.30;99.90
60473;DHT22;46318;52.716;6.444;2022-12-29T04:13:46;10.30;99.90
60473;DHT22;46318;52.716;6.444;2022-12-29T04:16:11;10.20;99.90
60473;DHT22;46318;52.716;6.444;2022-12-29T04:18:37;10.20;99.90
60473;DHT22;46318;52.716;6.444;2022-12-29T04:21:03;10.20;99.90
60473;DHT22;46318;52.716;6.444;2022-12-29T04:23:30;10.30;99.90
60473;DHT22;46318;52.716;6.444;2022-12-29T04:25:57;10.20;99.90
60473;DHT22;46318;52.716;6.444;2022-12-29T04:28:23;10.30;99.90
60473;DHT22;46318;52.716;6.444;2022-12-29T04:30:49;10.30;99.90
60473;DHT22;46318;52.716;6.444;2022-12-29T04:33:14;10.30;99.90
60473;DHT22;46318;52.716;6.444;2022-12-29T04:35:41;10.30;99.90
60473;DHT22;46318;52.716;6.444;2022-12-29T04:38:08;10.30;99.90
60473;DHT22;46318;52.716;6.444;2022-12-29T04:40:33;10.30;99.90
60473;DHT22;46318;52.716;6.444;2022-12-29T04:42:59;10.20;99.90
60473;DHT22;46318;52.716;6.444;2022-12-29T04:45:25;10.20;99.90
60473;DHT22;46318;52.716;6.444;2022-12-29T04:47:51;10.20;99.90
60473;DHT22;46318;52.716;6.444;2022-12-29T04:50:16;10.20;99.90
60473;DHT22;46318;52.716;6.444;2022-12-29T04:52:42;10.10;99.90
60473;DHT22;46318;52.716;6.444;2022-12-29T04:55:08;10.20;99.90
60473;DHT22;46318;52.716;6.444;2022-12-29T04:57:34;10.20;99.90
60473;DHT22;46318;52.716;6.444;2022-12-29T05:00:00;10.10;99.90
60473;DHT22;46318;52.716;6.444;2022-12-29T05:02:28;10.10;99.90
60473;DHT22;46318;52.716;6.444;2022-12-29T05:04:54;10.10;99.90
60473;DHT22;46318;52.716;6.444;2022-12-29T05:07:20;10.10;99.90
60473;DHT22;46318;52.716;6.444;2022-12-29T05:09:46;10.10;99.90
60473;DHT22;46318;52.716;6.444;2022-12-29T05:12:11;10.10;99.90
60473;DHT22;46318;52.716;6.444;2022-12-29T05:14:37;10.10;99.90
60473;DHT22;46318;52.716;6.444;2022-12-29T05:17:03;10.10;99.90
60473;DHT22;46318;52.716;6.444;2022-12-29T05:19:29;10.10;99.90
60473;DHT22;46318;52.716;6.444;2022-12-29T05:21:54;10.10;99.90
60473;DHT22;46318;52.716;6.444;2022-12-29T05:24:20;10.10;99.90
60473;DHT22;46318;52.716;6.444;2022-12-29T05:26:47;10.10;99.90
60473;DHT22;46318;52.716;6.444;2022-12-29T05:29:12;10.10;99.90
60473;DHT22;46318;52.716;6.444;2022-12-29T05:31:38;10.10;99.90
60473;DHT22;46318;52.716;6.444;2022-12-29T05:34:04;10.10;99.90
60473;DHT22;46318;52.716;6.444;2022-12-29T05:36:30;10.10;99.90
60473;DHT22;46318;52.716;6.444;2022-12-29T05:38:55;10.10;99.90
60473;DHT22;46318;52.716;6.444;2022-12-29T05:41:21;10.10;99.90
60473;DHT22;46318;52.716;6.444;2022-12-29T05:43:47;10.10;99.90
60473;DHT22;46318;52.716;6.444;2022-12-29T05:46:13;10.10;99.90
60473;DHT22;46318;52.716;6.444;2022-12-29T05:48:39;10.10;99.90
60473;DHT22;46318;52.716;6.444;2022-12-29T05:51:04;10.10;99.90
60473;DHT22;46318;52.716;6.444;2022-12-29T05:53:30;10.10;99.90
60473;DHT22;46318;52.716;6.444;2022-12-29T05:55:56;10.00;99.90
60473;DHT22;46318;52.716;6.444;2022-12-29T05:58:22;10.00;99.90
60473;DHT22;46318;52.716;6.444;2022-12-29T06:00:47;10.00;99.90
60473;DHT22;46318;52.716;6.444;2022-12-29T06:03:13;10.00;99.90
60473;DHT22;46318;52.716;6.444;2022-12-29T06:05:39;10.00;99.90
60473;DHT22;46318;52.716;6.444;2022-12-29T06:08:05;10.00;99.90
60473;DHT22;46318;52.716;6.444;2022-12-29T06:10:31;10.00;99.90
60473;DHT22;46318;52.716;6.444;2022-12-29T06:12:56;9.90;99.90
60473;DHT22;46318;52.716;6.444;2022-12-29T06:15:22;9.90;99.90
60473;DHT22;46318;52.716;6.444;2022-12-29T06:17:48;9.90;99.90
60473;DHT22;46318;52.716;6.444;2022-12-29T06:20:14;9.90;99.90
60473;DHT22;46318;52.716;6.444;2022-12-29T06:22:39;9.90;99.90
60473;DHT22;46318;52.716;6.444;2022-12-29T06:25:05;9.90;99.90
60473;DHT22;46318;52.716;6.444;2022-12-29T06:27:31;9.90;99.90
60473;DHT22;46318;52.716;6.444;2022-12-29T06:29:57;9.90;99.90
60473;DHT22;46318;52.716;6.444;2022-12-29T06:32:23;9.90;99.90
60473;DHT22;46318;52.716;6.444;2022-12-29T06:34:49;9.90;99.90
60473;DHT22;46318;52.716;6.444;2022-12-29T06:37:14;9.80;99.90
60473;DHT22;46318;52.716;6.444;2022-12-29T06:39:40;9.90;99.90
60473;DHT22;46318;52.716;6.444;2022-12-29T06:42:06;9.90;99.90
60473;DHT22;46318;52.716;6.444;2022-12-29T06:44:32;9.80;99.90
60473;DHT22;46318;52.716;6.444;2022-12-29T06:46:59;9.80;99.90
60473;DHT22;46318;52.716;6.444;2022-12-29T06:49:25;9.80;99.90
60473;DHT22;46318;52.716;6.444;2022-12-29T06:51:50;9.80;99.90
60473;DHT22;46318;52.716;6.444;2022-12-29T06:54:16;9.80;99.90
60473;DHT22;46318;52.716;6.444;2022-12-29T06:56:42;9.80;99.90
60473;DHT22;46318;52.716;6.444;2022-12-29T06:59:08;9.80;99.90
60473;DHT22;46318;52.716;6.444;2022-12-29T07:01:34;9.80;99.90
60473;DHT22;46318;52.716;6.444;2022-12-29T07:04:07;9.80;99.90
60473;DHT22;46318;52.716;6.444;2022-12-29T07:06:33;9.80;99.90
60473;DHT22;46318;52.716;6.444;2022-12-29T07:08:59;9.80;99.90
60473;DHT22;46318;52.716;6.444;2022-12-29T07:11:25;9.80;99.90
60473;DHT22;46318;52.716;6.444;2022-12-29T07:13:50;9.80;99.90
60473;DHT22;46318;52.716;6.444;2022-12-29T07:16:16;9.80;99.90
60473;DHT22;46318;52.716;6.444;2022-12-29T07:18:42;9.80;99.90
60473;DHT22;46318;52.716;6.444;2022-12-29T07:21:08;9.70;99.90
60473;DHT22;46318;52.716;6.444;2022-12-29T07:23:34;9.80;99.90
60473;DHT22;46318;52.716;6.444;2022-12-29T07:26:04;9.70;99.90
60473;DHT22;46318;52.716;6.444;2022-12-29T07:28:31;9.70;99.90
60473;DHT22;46318;52.716;6.444;2022-12-29T07:30:59;9.70;99.90
60473;DHT22;46318;52.716;6.444;2022-12-29T07:33:25;9.70;99.90
60473;DHT22;46318;52.716;6.444;2022-12-29T07:36:03;9.70;99.90
60473;DHT22;46318;52.716;6.444;2022-12-29T07:38:28;9.70;99.90
60473;DHT22;46318;52.716;6.444;2022-12-29T07:40:57;9.70;99.90
60473;DHT22;46318;52.716;6.444;2022-12-29T07:43:23;9.70;99.90
60473;DHT22;46318;52.716;6.444;2022-12-29T07:45:49;9.70;99.90
60473;DHT22;46318;52.716;6.444;2022-12-29T07:48:15;9.70;99.90
60473;DHT22;46318;52.716;6.444;2022-12-29T07:50:41;9.70;99.90
60473;DHT22;46318;52.716;6.444;2022-12-29T07:53:08;9.70;99.90
60473;DHT22;46318;52.716;6.444;2022-12-29T07:55:34;9.70;99.90
60473;DHT22;46318;52.716;6.444;2022-12-29T07:58:00;9.70;99.90
60473;DHT22;46318;52.716;6.444;2022-12-29T08:00:25;9.70;99.90
60473;DHT22;46318;52.716;6.444;2022-12-29T08:02:51;9.70;99.90
60473;DHT22;46318;52.716;6.444;2022-12-29T08:05:17;9.70;99.90
60473;DHT22;46318;52.716;6.444;2022-12-29T08:07:43;9.60;99.90
60473;DHT22;46318;52.716;6.444;2022-12-29T08:10:10;9.60;99.90
60473;DHT22;46318;52.716;6.444;2022-12-29T08:12:37;9.60;99.90
60473;DHT22;46318;52.716;6.444;2022-12-29T08:15:04;9.60;99.90
60473;DHT22;46318;52.716;6.444;2022-12-29T08:17:30;9.60;99.90
60473;DHT22;46318;52.716;6.444;2022-12-29T08:19:57;9.60;99.90
60473;DHT22;46318;52.716;6.444;2022-12-29T08:22:24;9.60;99.90
60473;DHT22;46318;52.716;6.444;2022-12-29T08:24:50;9.60;99.90
60473;DHT22;46318;52.716;6.444;2022-12-29T08:27:16;9.60;99.90
60473;DHT22;46318;52.716;6.444;2022-12-29T08:29:42;9.60;99.90
60473;DHT22;46318;52.716;6.444;2022-12-29T08:32:08;9.60;99.90
60473;DHT22;46318;52.716;6.444;2022-12-29T08:34:34;9.60;99.90
60473;DHT22;46318;52.716;6.444;2022-12-29T08:36:59;9.60;99.90
60473;DHT22;46318;52.716;6.444;2022-12-29T08:39:25;9.60;99.90
60473;DHT22;46318;52.716;6.444;2022-12-29T08:41:51;9.60;99.90
60473;DHT22;46318;52.716;6.444;2022-12-29T08:44:17;9.60;99.90
60473;DHT22;46318;52.716;6.444;2022-12-29T08:46:42;9.60;99.90
60473;DHT22;46318;52.716;6.444;2022-12-29T08:49:08;9.60;99.90
60473;DHT22;46318;52.716;6.444;2022-12-29T08:51:34;9.60;99.90
60473;DHT22;46318;52.716;6.444;2022-12-29T08:54:00;9.60;99.90
60473;DHT22;46318;52.716;6.444;2022-12-29T08:56:26;9.60;99.90
60473;DHT22;46318;52.716;6.444;2022-12-29T08:58:52;9.60;99.90
60473;DHT22;46318;52.716;6.444;2022-12-29T09:01:18;9.60;99.90
60473;DHT22;46318;52.716;6.444;2022-12-29T09:03:44;9.60;99.90
60473;DHT22;46318;52.716;6.444;2022-12-29T09:06:10;9.60;99.90
60473;DHT22;46318;52.716;6.444;2022-12-29T09:08:36;9.60;99.90
60473;DHT22;46318;52.716;6.444;2022-12-29T09:11:06;9.60;99.90
60473;DHT22;46318;52.716;6.444;2022-12-29T09:13:36;9.60;99.90
60473;DHT22;46318;52.716;6.444;2022-12-29T09:16:02;9.60;99.90
60473;DHT22;46318;52.716;6.444;2022-12-29T09:18:29;9.60;99.90
60473;DHT22;46318;52.716;6.444;2022-12-29T09:20:56;9.60;99.90
60473;DHT22;46318;52.716;6.444;2022-12-29T09:23:26;9.60;99.90
60473;DHT22;46318;52.716;6.444;2022-12-29T09:25:52;9.60;99.90
60473;DHT22;46318;52.716;6.444;2022-12-29T09:28:19;9.50;99.90
60473;DHT22;46318;52.716;6.444;2022-12-29T09:30:45;9.50;99.90
60473;DHT22;46318;52.716;6.444;2022-12-29T09:33:11;9.50;99.90
60473;DHT22;46318;52.716;6.444;2022-12-29T09:35:37;9.50;99.90
60473;DHT22;46318;52.716;6.444;2022-12-29T09:38:02;9.50;99.90
60473;DHT22;46318;52.716;6.444;2022-12-29T09:40:30;9.50;99.90
60473;DHT22;46318;52.716;6.444;2022-12-29T09:45:41;9.50;99.90
60473;DHT22;46318;52.716;6.444;2022-12-29T09:48:14;9.50;99.90
60473;DHT22;46318;52.716;6.444;2022-12-29T09:50:44;9.50;99.90
60473;DHT22;46318;52.716;6.444;2022-12-29T09:53:21;9.50;99.90
60473;DHT22;46318;52.716;6.444;2022-12-29T09:56:17;9.50;99.90
60473;DHT22;46318;52.716;6.444;2022-12-29T10:04:44;9.50;99.90
60473;DHT22;46318;52.716;6.444;2022-12-29T10:09:53;9.50;99.90
60473;DHT22;46318;52.716;6.444;2022-12-29T10:25:54;9.50;99.90
60473;DHT22;46318;52.716;6.444;2022-12-29T10:28:22;9.50;99.90
60473;DHT22;46318;52.716;6.444;2022-12-29T10:30:50;9.50;99.90
60473;DHT22;46318;52.716;6.444;2022-12-29T10:33:22;9.50;99.90
60473;DHT22;46318;52.716;6.444;2022-12-29T10:35:49;9.50;99.90
60473;DHT22;46318;52.716;6.444;2022-12-29T10:38:19;9.50;99.90
60473;DHT22;46318;52.716;6.444;2022-12-29T10:40:56;9.50;99.90
60473;DHT22;46318;52.716;6.444;2022-12-29T10:43:43;9.50;99.90
60473;DHT22;46318;52.716;6.444;2022-12-29T10:46:12;9.50;99.90
60473;DHT22;46318;52.716;6.444;2022-12-29T10:48:40;9.50;99.90
60473;DHT22;46318;52.716;6.444;2022-12-29T10:51:11;9.50;99.90
60473;DHT22;46318;52.716;6.444;2022-12-29T10:53:47;9.50;99.90
60473;DHT22;46318;52.716;6.444;2022-12-29T10:56:21;9.50;99.90
60473;DHT22;46318;52.716;6.444;2022-12-29T10:59:06;9.50;99.90
60473;DHT22;46318;52.716;6.444;2022-12-29T11:01:42;9.50;99.90
60473;DHT22;46318;52.716;6.444;2022-12-29T11:06:43;9.50;99.90
60473;DHT22;46318;52.716;6.444;2022-12-29T11:09:14;9.50;99.90
60473;DHT22;46318;52.716;6.444;2022-12-29T11:11:43;9.50;99.90
60473;DHT22;46318;52.716;6.444;2022-12-29T11:14:13;9.50;99.90
60473;DHT22;46318;52.716;6.444;2022-12-29T11:16:40;9.50;99.90
60473;DHT22;46318;52.716;6.444;2022-12-29T11:19:23;9.50;99.90
60473;DHT22;46318;52.716;6.444;2022-12-29T11:21:50;9.50;99.90
60473;DHT22;46318;52.716;6.444;2022-12-29T11:24:24;9.50;99.90
60473;DHT22;46318;52.716;6.444;2022-12-29T11:26:56;9.50;99.90
60473;DHT22;46318;52.716;6.444;2022-12-29T11:29:39;9.50;99.90
60473;DHT22;46318;52.716;6.444;2022-12-29T11:32:10;9.50;99.90
60473;DHT22;46318;52.716;6.444;2022-12-29T11:34:36;9.50;99.90
60473;DHT22;46318;52.716;6.444;2022-12-29T11:37:13;9.50;99.90
60473;DHT22;46318;52.716;6.444;2022-12-29T11:42:32;9.60;99.90
60473;DHT22;46318;52.716;6.444;2022-12-29T11:45:02;9.60;99.90
60473;DHT22;46318;52.716;6.444;2022-12-29T11:47:35;9.60;99.90
60473;DHT22;46318;52.716;6.444;2022-12-29T11:50:02;9.60;99.90
60473;DHT22;46318;52.716;6.444;2022-12-29T11:52:31;9.70;99.90
60473;DHT22;46318;52.716;6.444;2022-12-29T11:55:00;9.70;99.90
60473;DHT22;46318;52.716;6.444;2022-12-29T11:57:29;9.70;99.90
60473;DHT22;46318;52.716;6.444;2022-12-29T11:59:58;9.80;99.90
60473;DHT22;46318;52.716;6.444;2022-12-29T12:02:28;9.80;99.90
60473;DHT22;46318;52.716;6.444;2022-12-29T12:07:42;9.80;99.90
60473;DHT22;46318;52.716;6.444;2022-12-29T12:10:12;9.80;99.90
60473;DHT22;46318;52.716;6.444;2022-12-29T12:12:51;9.80;99.90
60473;DHT22;46318;52.716;6.444;2022-12-29T12:15:36;9.80;99.90
60473;DHT22;46318;52.716;6.444;2022-12-29T12:18:09;9.80;99.90
60473;DHT22;46318;52.716;6.444;2022-12-29T12:20:58;9.80;99.90
60473;DHT22;46318;52.716;6.444;2022-12-29T12:26:13;9.70;99.90
60473;DHT22;46318;52.716;6.444;2022-12-29T12:28:54;9.60;99.90
60473;DHT22;46318;52.716;6.444;2022-12-29T12:32:30;9.60;99.90
60473;DHT22;46318;52.716;6.444;2022-12-29T12:34:36;9.50;99.90
60473;DHT22;46318;52.716;6.444;2022-12-29T12:50:52;9.70;99.90
60473;DHT22;46318;52.716;6.444;2022-12-29T13:20:44;9.60;99.90
60473;DHT22;46318;52.716;6.444;2022-12-29T13:23:22;9.60;99.90
60473;DHT22;46318;52.716;6.444;2022-12-29T13:31:43;9.60;99.90
60473;DHT22;46318;52.716;6.444;2022-12-29T13:37:15;9.60;99.90
60473;DHT22;46318;52.716;6.444;2022-12-29T13:42:49;9.50;99.90
60473;DHT22;46318;52.716;6.444;2022-12-29T13:45:16;9.50;99.90
60473;DHT22;46318;52.716;6.444;2022-12-29T13:50:36;9.50;99.90
60473;DHT22;46318;52.716;6.444;2022-12-29T13:55:37;9.50;99.90
60473;DHT22;46318;52.716;6.444;2022-12-29T13:58:14;9.50;99.90
60473;DHT22;46318;52.716;6.444;2022-12-29T14:01:21;9.50;99.90
60473;DHT22;46318;52.716;6.444;2022-12-29T14:04:02;9.40;99.90
60473;DHT22;46318;52.716;6.444;2022-12-29T14:06:34;9.40;99.90
60473;DHT22;46318;52.716;6.444;2022-12-29T14:09:07;9.40;99.90
60473;DHT22;46318;52.716;6.444;2022-12-29T14:11:55;9.40;99.90
60473;DHT22;46318;52.716;6.444;2022-12-29T14:14:25;9.40;99.90
60473;DHT22;46318;52.716;6.444;2022-12-29T14:16:53;9.40;99.90
60473;DHT22;46318;52.716;6.444;2022-12-29T14:19:24;9.30;99.90
60473;DHT22;46318;52.716;6.444;2022-12-29T14:21:54;9.30;99.90
60473;DHT22;46318;52.716;6.444;2022-12-29T14:34:47;9.30;99.90
60473;DHT22;46318;52.716;6.444;2022-12-29T14:40:19;9.30;99.90
60473;DHT22;46318;52.716;6.444;2022-12-29T14:42:49;9.20;99.90
60473;DHT22;46318;52.716;6.444;2022-12-29T14:47:45;9.20;99.90
60473;DHT22;46318;52.716;6.444;2022-12-29T14:50:16;9.20;99.90
60473;DHT22;46318;52.716;6.444;2022-12-29T14:57:44;9.10;99.90
60473;DHT22;46318;52.716;6.444;2022-12-29T15:00:21;9.20;99.90
60473;DHT22;46318;52.716;6.444;2022-12-29T15:02:54;9.10;99.90
60473;DHT22;46318;52.716;6.444;2022-12-29T15:05:36;9.10;99.90
60473;DHT22;46318;52.716;6.444;2022-12-29T15:08:03;9.10;99.90
60473;DHT22;46318;52.716;6.444;2022-12-29T15:10:32;9.10;99.90
60473;DHT22;46318;52.716;6.444;2022-12-29T15:13:04;9.10;99.90
60473;DHT22;46318;52.716;6.444;2022-12-29T15:15:38;9.10;99.90
60473;DHT22;46318;52.716;6.444;2022-12-29T15:18:14;9.00;99.90
60473;DHT22;46318;52.716;6.444;2022-12-29T15:20:49;9.00;99.90
60473;DHT22;46318;52.716;6.444;2022-12-29T15:23:16;9.00;99.90
60473;DHT22;46318;52.716;6.444;2022-12-29T15:28:28;9.00;99.90
60473;DHT22;46318;52.716;6.444;2022-12-29T15:31:04;9.00;99.90
60473;DHT22;46318;52.716;6.444;2022-12-29T15:33:36;8.90;99.90
60473;DHT22;46318;52.716;6.444;2022-12-29T15:36:08;8.90;99.90
60473;DHT22;46318;52.716;6.444;2022-12-29T15:38:36;8.90;99.90
60473;DHT22;46318;52.716;6.444;2022-12-29T15:41:06;8.90;99.90
60473;DHT22;46318;52.716;6.444;2022-12-29T15:46:17;8.90;99.90
60473;DHT22;46318;52.716;6.444;2022-12-29T15:48:43;8.90;99.90
60473;DHT22;46318;52.716;6.444;2022-12-29T15:51:28;8.90;99.90
60473;DHT22;46318;52.716;6.444;2022-12-29T15:53:56;8.80;99.90
60473;DHT22;46318;52.716;6.444;2022-12-29T15:56:22;8.80;99.90
60473;DHT22;46318;52.716;6.444;2022-12-29T15:58:50;8.80;99.90
60473;DHT22;46318;52.716;6.444;2022-12-29T16:01:17;8.80;99.90
60473;DHT22;46318;52.716;6.444;2022-12-29T16:03:44;8.80;99.90
60473;DHT22;46318;52.716;6.444;2022-12-29T16:06:24;8.70;99.90
60473;DHT22;46318;52.716;6.444;2022-12-29T16:09:28;8.70;99.90
60473;DHT22;46318;52.716;6.444;2022-12-29T16:11:53;8.70;99.90
60473;DHT22;46318;52.716;6.444;2022-12-29T16:14:29;8.60;99.90
60473;DHT22;46318;52.716;6.444;2022-12-29T16:17:00;8.60;99.90
60473;DHT22;46318;52.716;6.444;2022-12-29T16:19:32;8.60;99.90
60473;DHT22;46318;52.716;6.444;2022-12-29T16:22:02;8.60;99.90
60473;DHT22;46318;52.716;6.444;2022-12-29T16:24:31;8.60;99.90
60473;DHT22;46318;52.716;6.444;2022-12-29T16:29:33;8.50;99.90
60473;DHT22;46318;52.716;6.444;2022-12-29T16:32:00;8.50;99.90
60473;DHT22;46318;52.716;6.444;2022-12-29T16:37:03;8.50;99.90
60473;DHT22;46318;52.716;6.444;2022-12-29T16:39:44;8.50;99.90
60473;DHT22;46318;52.716;6.444;2022-12-29T16:45:04;8.50;99.90
60473;DHT22;46318;52.716;6.444;2022-12-29T16:50:35;8.50;99.90
60473;DHT22;46318;52.716;6.444;2022-12-29T16:53:03;8.50;99.90
60473;DHT22;46318;52.716;6.444;2022-12-29T16:55:30;8.50;99.90
60473;DHT22;46318;52.716;6.444;2022-12-29T16:57:56;8.50;99.90
60473;DHT22;46318;52.716;6.444;2022-12-29T17:00:24;8.50;99.90
60473;DHT22;46318;52.716;6.444;2022-12-29T17:02:57;8.50;99.90
60473;DHT22;46318;52.716;6.444;2022-12-29T17:05:23;8.50;99.90
60473;DHT22;46318;52.716;6.444;2022-12-29T17:07:49;8.50;99.90
60473;DHT22;46318;52.716;6.444;2022-12-29T17:10:16;8.50;99.90
60473;DHT22;46318;52.716;6.444;2022-12-29T17:12:43;8.50;99.90
60473;DHT22;46318;52.716;6.444;2022-12-29T17:15:21;8.50;99.90
60473;DHT22;46318;52.716;6.444;2022-12-29T17:17:51;8.50;99.90
60473;DHT22;46318;52.716;6.444;2022-12-29T17:20:23;8.50;99.90
60473;DHT22;46318;52.716;6.444;2022-12-29T17:22:51;8.50;99.90
60473;DHT22;46318;52.716;6.444;2022-12-29T17:25:34;8.50;99.90
60473;DHT22;46318;52.716;6.444;2022-12-29T17:28:12;8.50;99.90
60473;DHT22;46318;52.716;6.444;2022-12-29T17:30:49;8.40;99.90
60473;DHT22;46318;52.716;6.444;2022-12-29T17:33:16;8.50;99.90
60473;DHT22;46318;52.716;6.444;2022-12-29T17:35:43;8.50;99.90
60473;DHT22;46318;52.716;6.444;2022-12-29T17:38:15;8.40;99.90
60473;DHT22;46318;52.716;6.444;2022-12-29T17:40:43;8.40;99.90
60473;DHT22;46318;52.716;6.444;2022-12-29T17:43:10;8.40;99.90
60473;DHT22;46318;52.716;6.444;2022-12-29T17:45:38;8.40;99.90
60473;DHT22;46318;52.716;6.444;2022-12-29T17:48:15;8.40;99.90
60473;DHT22;46318;52.716;6.444;2022-12-29T17:50:42;8.40;99.90
60473;DHT22;46318;52.716;6.444;2022-12-29T17:53:13;8.40;99.90
60473;DHT22;46318;52.716;6.444;2022-12-29T17:55:40;8.40;99.90
60473;DHT22;46318;52.716;6.444;2022-12-29T17:58:22;8.30;99.90
60473;DHT22;46318;52.716;6.444;2022-12-29T18:00:50;8.30;99.90
60473;DHT22;46318;52.716;6.444;2022-12-29T18:03:31;8.30;99.90
60473;DHT22;46318;52.716;6.444;2022-12-29T18:06:00;8.30;99.90
60473;DHT22;46318;52.716;6.444;2022-12-29T18:08:27;8.30;99.90
60473;DHT22;46318;52.716;6.444;2022-12-29T18:10:54;8.30;99.90
60473;DHT22;46318;52.716;6.444;2022-12-29T18:13:21;8.30;99.90
60473;DHT22;46318;52.716;6.444;2022-12-29T18:15:50;8.30;99.90
60473;DHT22;46318;52.716;6.444;2022-12-29T18:18:17;8.30;99.90
60473;DHT22;46318;52.716;6.444;2022-12-29T18:20:45;8.30;99.90
60473;DHT22;46318;52.716;6.444;2022-12-29T18:23:18;8.30;99.90
60473;DHT22;46318;52.716;6.444;2022-12-29T18:25:53;8.30;99.90
60473;DHT22;46318;52.716;6.444;2022-12-29T18:28:22;8.30;99.90
60473;DHT22;46318;52.716;6.444;2022-12-29T18:30:49;8.30;99.90
60473;DHT22;46318;52.716;6.444;2022-12-29T18:33:17;8.30;99.90
60473;DHT22;46318;52.716;6.444;2022-12-29T18:35:52;8.30;99.90
60473;DHT22;46318;52.716;6.444;2022-12-29T18:38:20;8.30;99.90
60473;DHT22;46318;52.716;6.444;2022-12-29T18:40:49;8.30;99.90
60473;DHT22;46318;52.716;6.444;2022-12-29T18:43:16;8.30;99.90
60473;DHT22;46318;52.716;6.444;2022-12-29T18:45:42;8.20;99.90
60473;DHT22;46318;52.716;6.444;2022-12-29T18:48:12;8.20;99.90
60473;DHT22;46318;52.716;6.444;2022-12-29T18:50:38;8.20;99.90
60473;DHT22;46318;52.716;6.444;2022-12-29T18:53:04;8.20;99.90
60473;DHT22;46318;52.716;6.444;2022-12-29T18:55:30;8.10;99.90
60473;DHT22;46318;52.716;6.444;2022-12-29T18:57:56;8.10;99.90